Time;durP1;ratioP1;P1;durP2;ratioP2;P2;SDS_P1;SDS_P2;PMS_P1;PMS_P2;Temp;Humidity;BMP_temperature;BMP_pressure;BME280_temperature;BME280_humidity;BME280_pressure;Samples;Min_cycle;Max_cycle;Signal;HPM_P1;HPM_P2
2021/05/19 00:00:49;;;;;;;2.10;1.50;;;;;;;14.09;69.87;94702.69;5115536;28;20449;-77
2021/05/19 00:03:16;;;;;;;1.40;1.30;;;;;;;14.11;69.31;94711.28;5115477;27;20443;-77
2021/05/19 00:05:42;;;;;;;2.57;1.40;;;;;;;14.06;69.01;94708.28;5115349;28;20443;-77
2021/05/19 00:08:09;;;;;;;1.50;1.40;;;;;;;14.06;70.22;94703.81;5115479;28;20444;-78
2021/05/19 00:10:36;;;;;;;3.20;1.30;;;;;;;14.07;69.26;94705.47;5115804;28;20442;-78
2021/05/19 00:13:03;;;;;;;1.70;1.43;;;;;;;14.09;69.20;94713.25;5115546;28;20466;-77
2021/05/19 00:15:30;;;;;;;4.77;1.80;;;;;;;14.12;68.83;94707.66;5115690;28;20446;-78
2021/05/19 00:18:01;;;;;;;2.40;1.57;;;;;;;14.08;68.93;94707.13;5115167;28;20930;-78
2021/05/19 00:20:29;;;;;;;1.60;1.47;;;;;;;13.90;70.02;94703.75;5115420;28;20436;-77
2021/05/19 00:22:55;;;;;;;1.57;1.30;;;;;;;13.94;71.88;94710.34;5114969;28;20545;-77
2021/05/19 00:25:21;;;;;;;2.00;1.53;;;;;;;13.97;71.39;94706.59;5115123;28;20447;-77
2021/05/19 00:27:48;;;;;;;1.87;1.70;;;;;;;13.98;70.02;94709.06;5062553;28;20454;-78
2021/05/19 00:30:18;;;;;;;2.80;1.57;;;;;;;13.87;70.36;94714.56;5115047;28;20497;-78
2021/05/19 00:32:44;;;;;;;3.40;1.40;;;;;;;13.83;71.17;94711.41;5079986;28;21045;-78
2021/05/19 00:35:11;;;;;;;1.60;1.50;;;;;;;13.84;71.65;94712.25;5095986;28;20445;-77
2021/05/19 00:37:38;;;;;;;1.90;1.50;;;;;;;13.89;71.25;94696.81;5115223;28;20917;-77
2021/05/19 00:40:06;;;;;;;1.40;1.30;;;;;;;13.96;70.50;94705.75;5115174;28;20464;-77
2021/05/19 00:42:32;;;;;;;2.47;1.93;;;;;;;13.93;70.26;94696.34;5078618;28;20455;-77
2021/05/19 00:45:03;;;;;;;2.50;1.43;;;;;;;13.97;70.34;94704.78;5114657;28;20453;-77
2021/05/19 00:47:32;;;;;;;1.70;1.60;;;;;;;14.04;69.66;94700.53;5114542;28;20452;-77
2021/05/19 00:49:58;;;;;;;1.33;1.23;;;;;;;14.08;69.16;94701.84;5114980;28;20439;-77
2021/05/19 00:52:25;;;;;;;2.03;1.33;;;;;;;14.08;69.66;94696.59;5114622;28;20500;-78
2021/05/19 00:54:52;;;;;;;9.33;1.60;;;;;;;14.12;70.10;94694.44;5114530;28;20443;-77
2021/05/19 00:57:19;;;;;;;1.40;1.30;;;;;;;14.14;69.89;94693.31;5114265;28;20453;-78
2021/05/19 00:59:45;;;;;;;1.60;1.50;;;;;;;14.15;70.32;94694.97;5114726;28;20443;-77
2021/05/19 01:02:11;;;;;;;2.83;2.20;;;;;;;14.12;70.63;94697.91;5095379;28;20468;-78
2021/05/19 01:04:38;;;;;;;1.83;1.73;;;;;;;14.11;70.62;94695.44;5114092;28;20444;-77
2021/05/19 01:07:07;;;;;;;1.80;1.70;;;;;;;14.09;70.90;94690.31;5114226;28;20438;-78
2021/05/19 01:09:36;;;;;;;3.40;1.70;;;;;;;14.07;70.06;94694.94;5114123;28;20448;-77
2021/05/19 01:12:03;;;;;;;3.40;1.50;;;;;;;14.03;70.52;94690.13;5095652;28;20446;-77
2021/05/19 01:14:32;;;;;;;1.50;1.40;;;;;;;14.02;70.76;94699.03;5114072;27;20491;-78
2021/05/19 01:16:59;;;;;;;2.30;1.20;;;;;;;13.96;70.20;94687.28;5095164;28;20868;-77
2021/05/19 01:19:26;;;;;;;2.57;1.40;;;;;;;13.92;70.06;94694.69;5114383;28;20457;-77
2021/05/19 01:21:55;;;;;;;2.70;1.47;;;;;;;13.91;68.98;94693.03;5113831;28;20446;-78
2021/05/19 01:24:23;;;;;;;1.80;1.70;;;;;;;13.85;70.73;94695.44;5113876;28;20452;-77
2021/05/19 01:26:50;;;;;;;4.43;1.60;;;;;;;13.75;69.97;94684.16;5113863;28;20456;-77
2021/05/19 01:29:16;;;;;;;1.40;1.30;;;;;;;13.71;70.98;94694.19;5113981;28;20441;-77
2021/05/19 01:31:46;;;;;;;2.10;2.00;;;;;;;13.75;71.92;94692.91;5114239;28;20441;-77
2021/05/19 01:34:12;;;;;;;2.77;1.63;;;;;;;13.76;71.89;94697.19;5113985;28;20488;-77
2021/05/19 01:36:39;;;;;;;1.50;1.40;;;;;;;13.76;72.40;94696.38;5114067;28;20443;-77
2021/05/19 01:39:06;;;;;;;1.30;1.20;;;;;;;13.63;70.80;94688.88;5113928;28;20446;-77
2021/05/19 01:41:34;;;;;;;1.70;1.60;;;;;;;13.47;71.81;94692.19;5114064;28;20445;-78
2021/05/19 01:44:09;;;;;;;1.57;1.47;;;;;;;13.42;71.36;94702.38;5113812;28;20461;-78
2021/05/19 01:46:35;;;;;;;5.37;2.13;;;;;;;13.35;72.61;94701.34;5113722;28;20443;-78
2021/05/19 01:49:02;;;;;;;1.70;1.60;;;;;;;13.19;71.08;94702.00;5113515;28;20443;-78
2021/05/19 01:51:30;;;;;;;5.47;2.50;;;;;;;13.07;71.42;94697.91;5094278;28;20871;-78
2021/05/19 01:53:56;;;;;;;7.77;4.53;;;;;;;12.65;73.39;94703.72;5113745;28;20484;-78
2021/05/19 01:56:22;;;;;;;8.30;2.60;;;;;;;12.64;76.27;94703.84;5113909;28;20524;-78
2021/05/19 01:58:50;;;;;;;1.97;1.87;;;;;;;12.79;75.57;94712.94;5113460;28;20447;-78
2021/05/19 02:01:16;;;;;;;4.00;3.17;;;;;;;12.93;74.36;94714.22;5113921;28;20431;-78
2021/05/19 02:03:43;;;;;;;6.27;4.20;;;;;;;12.43;74.75;94706.72;5113755;28;20456;-78
2021/05/19 02:06:09;;;;;;;11.27;4.03;;;;;;;12.17;76.16;94705.75;5113712;28;20447;-78
2021/05/19 02:08:36;;;;;;;10.83;4.23;;;;;;;12.19;76.43;94706.44;5113526;27;20434;-78
2021/05/19 02:11:02;;;;;;;4.20;3.47;;;;;;;12.28;77.34;94700.31;5113525;28;20806;-78
2021/05/19 02:13:29;;;;;;;7.03;3.80;;;;;;;12.32;76.15;94705.13;5112993;28;20486;-78
2021/05/19 02:15:56;;;;;;;5.03;4.03;;;;;;;12.31;76.21;94708.72;5113543;28;20803;-78
2021/05/19 02:18:22;;;;;;;7.43;3.83;;;;;;;12.39;76.76;94703.56;5113387;28;20450;-78
2021/05/19 02:20:48;;;;;;;7.97;4.87;;;;;;;12.48;76.72;94706.31;5094444;28;20455;-78
2021/05/19 02:23:15;;;;;;;6.43;3.90;;;;;;;12.41;76.15;94704.25;5094305;28;20441;-78
2021/05/19 02:25:41;;;;;;;4.07;3.77;;;;;;;12.46;76.17;94695.09;5113536;28;20788;-77
2021/05/19 02:28:08;;;;;;;7.10;3.73;;;;;;;12.44;76.10;94692.63;5094182;28;20448;-78
2021/05/19 02:30:35;;;;;;;6.87;4.87;;;;;;;12.39;75.69;94700.94;5113185;28;20446;-78
2021/05/19 02:33:09;;;;;;;4.63;3.90;;;;;;;12.46;76.13;94695.09;5113351;28;20802;-78
2021/05/19 02:35:35;;;;;;;5.37;4.20;;;;;;;12.56;77.91;94701.97;5116500;28;20445;-78
2021/05/19 02:38:01;;;;;;;5.77;4.23;;;;;;;12.66;76.09;94691.38;5117109;28;20438;-78
2021/05/19 02:40:29;;;;;;;3.73;3.47;;;;;;;12.73;76.67;94687.19;5117347;28;20777;-78
2021/05/19 02:42:56;;;;;;;3.70;3.40;;;;;;;12.71;76.86;94683.84;5117260;28;21432;-78
2021/05/19 02:45:22;;;;;;;3.77;3.47;;;;;;;12.78;75.76;94689.38;5117231;28;20446;-78
2021/05/19 02:47:48;;;;;;;6.13;3.20;;;;;;;12.72;74.97;94667.09;5117105;28;20952;-78
2021/05/19 02:50:16;;;;;;;11.43;3.20;;;;;;;12.58;74.50;94670.22;5098006;28;20438;-78
2021/05/19 02:52:43;;;;;;;7.30;2.60;;;;;;;12.45;74.14;94670.59;5116695;28;20501;-78
2021/05/19 02:55:10;;;;;;;2.40;1.80;;;;;;;12.53;74.45;94665.41;5116922;28;20992;-78
2021/05/19 02:57:37;;;;;;;2.80;2.60;;;;;;;12.65;74.53;94663.41;5116524;28;20442;-78
2021/05/19 03:00:06;;;;;;;2.53;2.33;;;;;;;12.70;74.04;94676.94;5116606;28;20824;-78
2021/05/19 03:02:32;;;;;;;2.73;2.00;;;;;;;12.77;73.25;94672.75;5116699;28;20479;-78
2021/05/19 03:04:58;;;;;;;2.83;2.30;;;;;;;12.81;73.31;94671.47;5097209;28;20495;-78
2021/05/19 03:07:26;;;;;;;2.73;2.40;;;;;;;12.83;74.72;94680.06;5116116;28;20440;-78
2021/05/19 03:09:52;;;;;;;2.50;2.30;;;;;;;12.82;73.79;94678.41;5116493;27;20451;-78
2021/05/19 03:12:18;;;;;;;2.70;2.10;;;;;;;12.94;73.48;94682.47;5116769;28;20447;-78
2021/05/19 03:14:45;;;;;;;2.70;2.43;;;;;;;13.05;71.76;94691.16;5116485;28;21035;-78
2021/05/19 03:17:11;;;;;;;2.73;2.50;;;;;;;13.10;71.26;94694.97;5116400;28;20450;-78
2021/05/19 03:19:37;;;;;;;8.13;2.23;;;;;;;13.05;70.70;94704.31;5116149;28;20946;-78
2021/05/19 03:22:04;;;;;;;2.40;2.20;;;;;;;13.03;71.03;94709.72;5116647;28;20455;-78
2021/05/19 03:24:31;;;;;;;2.60;1.90;;;;;;;12.95;71.65;94696.47;5116244;28;20492;-78
2021/05/19 03:26:57;;;;;;;2.20;2.00;;;;;;;12.98;71.08;94696.16;5114369;28;20495;-79
2021/05/19 03:29:24;;;;;;;2.47;2.27;;;;;;;13.08;70.80;94696.09;5116064;28;20714;-78
2021/05/19 03:31:50;;;;;;;8.00;1.83;;;;;;;13.20;70.76;94694.94;5116186;28;20441;-78
2021/05/19 03:34:17;;;;;;;1.97;1.87;;;;;;;13.21;70.41;94694.78;5116048;28;20489;-78
2021/05/19 03:36:44;;;;;;;2.80;2.60;;;;;;;13.20;70.94;94694.94;5116319;28;20507;-78
2021/05/19 03:39:12;;;;;;;2.50;2.30;;;;;;;13.14;70.94;94700.78;5115790;28;20979;-79
2021/05/19 03:41:40;;;;;;;4.87;2.07;;;;;;;13.15;71.62;94702.44;5116011;28;20451;-78
2021/05/19 03:44:07;;;;;;;4.40;2.77;;;;;;;13.23;71.20;94703.34;5115936;28;20449;-79
2021/05/19 03:46:33;;;;;;;2.20;1.80;;;;;;;13.27;70.52;94703.88;5115758;28;20434;-79
2021/05/19 03:49:01;;;;;;;2.43;1.60;;;;;;;13.28;70.27;94701.09;5097000;28;20451;-78
2021/05/19 03:51:28;;;;;;;1.80;1.63;;;;;;;13.49;70.14;94708.69;5115964;28;20550;-79
2021/05/19 03:53:55;;;;;;;3.20;1.90;;;;;;;13.88;68.65;94695.16;5115590;28;20924;-78
2021/05/19 03:56:21;;;;;;;1.93;1.83;;;;;;;14.32;66.97;94693.25;5115855;28;20457;-79
2021/05/19 03:58:49;;;;;;;3.13;2.13;;;;;;;14.92;66.78;94700.28;5127080;27;20470;-77
2021/05/19 04:01:15;;;;;;;6.60;2.10;;;;;;;15.43;63.51;94700.03;5136350;27;20474;-77
2021/05/19 04:03:42;;;;;;;1.93;1.47;;;;;;;15.98;62.16;94688.81;5136367;27;20474;-77
2021/05/19 04:06:08;;;;;;;4.23;1.90;;;;;;;16.63;63.44;94703.69;5136531;27;20442;-81
2021/05/19 04:08:35;;;;;;;3.03;1.83;;;;;;;17.41;60.77;94702.84;5135831;27;20448;-78
2021/05/19 04:11:01;;;;;;;5.27;1.53;;;;;;;17.87;55.77;94703.66;5135663;27;20471;-79
2021/05/19 04:13:28;;;;;;;2.50;2.30;;;;;;;17.88;56.22;94698.16;5135894;27;20488;-79
2021/05/19 04:15:55;;;;;;;14.37;7.30;;;;;;;17.88;56.15;94700.81;5136003;27;20859;-79
2021/05/19 04:18:22;;;;;;;18.30;9.43;;;;;;;17.69;56.19;94693.38;5136162;27;20451;-77
2021/05/19 04:20:48;;;;;;;20.97;10.47;;;;;;;17.83;55.88;94697.06;5099817;27;20446;-80
2021/05/19 04:23:15;;;;;;;22.87;11.30;;;;;;;17.80;56.73;94703.53;5135732;27;20438;-80
2021/05/19 04:25:41;;;;;;;22.50;9.70;;;;;;;17.87;56.94;94696.50;5136125;27;20909;-78
2021/05/19 04:28:08;;;;;;;17.87;9.57;;;;;;;17.93;56.89;94702.97;5135751;27;20921;-80
2021/05/19 04:30:34;;;;;;;19.47;8.63;;;;;;;18.04;55.73;94694.53;5135929;27;20443;-80
2021/05/19 04:33:02;;;;;;;19.27;7.63;;;;;;;17.98;55.47;94695.28;5135659;27;21469;-80
2021/05/19 04:35:28;;;;;;;19.17;6.63;;;;;;;17.88;56.24;94700.81;5135344;27;20492;-79
2021/05/19 04:37:55;;;;;;;15.60;6.07;;;;;;;17.80;57.80;94703.53;5135434;27;20458;-79
2021/05/19 04:40:21;;;;;;;22.47;5.60;;;;;;;17.79;58.73;94707.22;5135791;27;20441;-79
2021/05/19 04:42:49;;;;;;;4.43;3.40;;;;;;;17.86;61.81;94718.75;5135451;27;20806;-79
2021/05/19 04:45:15;;;;;;;3.40;3.00;;;;;;;18.18;62.96;94722.13;5135601;27;20446;-80
2021/05/19 04:47:42;;;;;;;3.20;2.10;;;;;;;18.54;56.57;94709.00;5135805;27;20439;-80
2021/05/19 04:50:11;;;;;;;4.87;2.70;;;;;;;18.97;57.28;94702.00;5135476;27;20449;-76
2021/05/19 04:52:38;;;;;;;6.33;2.20;;;;;;;19.39;55.50;94695.13;5135408;27;20472;-75
2021/05/19 04:55:06;;;;;;;6.57;2.20;;;;;;;19.77;53.04;94693.88;5135122;27;20452;-78
2021/05/19 04:57:33;;;;;;;4.83;2.17;;;;;;;20.09;50.19;94694.34;5134529;27;20426;-78
2021/05/19 04:59:59;;;;;;;2.40;2.20;;;;;;;20.36;49.61;94688.22;5134822;27;20445;-78
2021/05/19 05:02:26;;;;;;;5.10;2.10;;;;;;;20.73;48.52;94697.69;5135735;27;20445;-78
2021/05/19 05:04:52;;;;;;;4.73;2.10;;;;;;;21.14;47.08;94699.53;5135459;27;20450;-78
2021/05/19 05:07:21;;;;;;;3.00;1.80;;;;;;;21.50;46.33;94688.56;5135851;27;20470;-80
2021/05/19 05:09:48;;;;;;;3.40;1.63;;;;;;;21.73;46.34;94669.53;5136307;27;20432;-80
2021/05/19 05:12:14;;;;;;;1.70;1.60;;;;;;;22.00;44.33;94673.03;5135655;27;20558;-77
2021/05/19 05:14:40;;;;;;;5.30;2.07;;;;;;;22.11;45.05;94661.75;5115781;27;20484;-80
2021/05/19 05:17:07;;;;;;;3.97;2.50;;;;;;;22.21;43.29;94656.78;5099339;27;20458;-80
2021/05/19 05:19:33;;;;;;;2.87;2.47;;;;;;;22.10;43.19;94656.59;5134825;27;20980;-80
2021/05/19 05:22:00;;;;;;;3.00;2.10;;;;;;;21.88;44.31;94655.94;5134808;27;20457;-80
2021/05/19 05:24:27;;;;;;;4.87;3.07;;;;;;;21.85;45.06;94656.38;5135270;27;20470;-80
2021/05/19 05:26:55;;;;;;;5.10;2.90;;;;;;;21.82;44.44;94660.28;5134712;27;20446;-80
2021/05/19 05:29:21;;;;;;;6.00;3.37;;;;;;;21.29;46.23;94657.50;5134792;27;20445;-80
2021/05/19 05:31:48;;;;;;;3.97;3.67;;;;;;;21.46;45.22;94678.50;5134454;27;20434;-80
2021/05/19 05:34:14;;;;;;;11.73;4.40;;;;;;;21.30;45.50;94679.69;5134397;27;20482;-80
2021/05/19 05:36:40;;;;;;;3.93;3.30;;;;;;;21.51;45.88;94681.38;5135077;27;20495;-80
2021/05/19 05:39:07;;;;;;;11.87;3.50;;;;;;;21.47;45.51;94674.81;5134453;27;20431;-79
2021/05/19 05:41:34;;;;;;;5.77;3.73;;;;;;;21.36;46.31;94686.06;5134789;27;20438;-79
2021/05/19 05:44:00;;;;;;;5.00;4.30;;;;;;;21.29;47.56;94686.06;5134873;27;20453;-80
2021/05/19 05:46:27;;;;;;;3.90;3.50;;;;;;;21.49;46.18;94689.59;5134399;27;20449;-79
2021/05/19 05:48:53;;;;;;;3.97;3.20;;;;;;;21.65;46.15;94699.88;5134663;27;20438;-80
2021/05/19 05:51:20;;;;;;;5.33;2.97;;;;;;;21.55;45.20;94687.97;5134404;27;20545;-80
2021/05/19 05:53:46;;;;;;;11.23;2.87;;;;;;;21.71;45.00;94700.13;5134472;27;20486;-79
2021/05/19 05:56:12;;;;;;;2.90;2.60;;;;;;;21.59;45.10;94686.53;5115484;28;20444;-80
2021/05/19 05:58:40;;;;;;;4.17;2.77;;;;;;;21.36;46.04;94692.22;5134747;27;20454;-80
2021/05/19 06:01:09;;;;;;;6.50;2.90;;;;;;;20.54;47.69;94677.09;5134375;27;20430;-81
2021/05/19 06:03:35;;;;;;;2.43;2.23;;;;;;;20.23;48.25;94672.13;5134435;28;20450;-80
2021/05/19 06:06:01;;;;;;;5.10;3.23;;;;;;;20.45;48.62;94680.91;5134332;27;20430;-80
2021/05/19 06:08:28;;;;;;;8.90;3.80;;;;;;;20.88;48.27;94670.91;5100529;27;20438;-80
2021/05/19 06:10:55;;;;;;;6.07;4.40;;;;;;;21.12;47.57;94664.22;5138594;27;20439;-80
2021/05/19 06:13:22;;;;;;;6.23;3.63;;;;;;;21.51;45.67;94666.19;5138215;27;20518;-80
2021/05/19 06:15:49;;;;;;;9.93;4.40;;;;;;;21.50;45.56;94674.41;5138255;27;20473;-80
2021/05/19 06:18:15;;;;;;;9.50;4.17;;;;;;;21.39;46.15;94683.81;5137981;27;20460;-80
2021/05/19 06:20:41;;;;;;;9.53;4.97;;;;;;;21.05;47.12;94682.03;5138226;27;20431;-80
2021/05/19 06:23:08;;;;;;;5.27;4.50;;;;;;;20.61;48.39;94671.78;5138494;27;20450;-80
2021/05/19 06:25:34;;;;;;;5.27;4.77;;;;;;;20.18;48.93;94673.72;5138156;27;20438;-80
2021/05/19 06:28:00;;;;;;;9.50;6.00;;;;;;;20.17;50.91;94662.25;5137990;27;20814;-80
2021/05/19 06:30:27;;;;;;;7.57;5.40;;;;;;;20.20;49.65;94661.03;5138267;27;20839;-80
2021/05/19 06:32:54;;;;;;;6.03;4.50;;;;;;;20.44;49.37;94657.94;5137571;27;20460;-80
2021/05/19 06:35:20;;;;;;;12.63;5.77;;;;;;;20.46;49.01;94665.72;5138290;27;20441;-80
2021/05/19 06:37:47;;;;;;;8.80;6.17;;;;;;;20.39;50.83;94655.00;5137859;27;21295;-80
2021/05/19 06:40:13;;;;;;;18.70;7.90;;;;;;;20.53;48.83;94654.13;5137879;27;20486;-79
2021/05/19 06:42:40;;;;;;;11.50;6.70;;;;;;;20.59;48.99;94655.16;5138152;27;20815;-80
2021/05/19 06:45:07;;;;;;;7.20;6.07;;;;;;;20.15;49.24;94664.28;5137665;27;20839;-79
2021/05/19 06:47:33;;;;;;;12.73;7.60;;;;;;;19.30;51.46;94654.50;5137493;27;20432;-81
2021/05/19 06:50:00;;;;;;;9.07;5.87;;;;;;;19.41;52.69;94646.03;5138163;27;20442;-80
2021/05/19 06:52:27;;;;;;;13.27;7.37;;;;;;;19.49;52.86;94653.88;5137168;27;20475;-80
2021/05/19 06:54:54;;;;;;;9.20;7.30;;;;;;;19.40;52.37;94649.69;5118519;27;20602;-80
2021/05/19 06:57:20;;;;;;;10.53;7.60;;;;;;;19.30;53.35;94656.31;5137797;27;20893;-79
2021/05/19 06:59:46;;;;;;;10.43;6.57;;;;;;;19.22;53.82;94645.81;5137764;27;20427;-80
2021/05/19 07:02:12;;;;;;;14.13;7.10;;;;;;;18.69;55.08;94645.22;5137578;27;20440;-80
2021/05/19 07:04:39;;;;;;;10.40;6.87;;;;;;;18.92;54.57;94631.78;5137449;27;20839;-80
2021/05/19 07:07:06;;;;;;;9.63;6.10;;;;;;;18.94;54.89;94629.75;5137799;27;20429;-80
2021/05/19 07:09:32;;;;;;;7.50;5.47;;;;;;;18.96;53.91;94625.91;5137457;27;20445;-80
2021/05/19 07:11:59;;;;;;;8.90;5.07;;;;;;;18.73;55.11;94631.34;5137401;27;20456;-80
2021/05/19 07:14:27;;;;;;;4.53;4.13;;;;;;;18.57;53.95;94627.06;5137352;27;20476;-79
2021/05/19 07:16:54;;;;;;;7.50;4.83;;;;;;;18.39;53.97;94631.09;5137706;27;20538;-81
2021/05/19 07:19:21;;;;;;;10.43;4.77;;;;;;;18.51;54.56;94630.47;5136979;27;20501;-81
2021/05/19 07:21:48;;;;;;;5.10;4.67;;;;;;;18.63;53.77;94630.00;5137194;27;20454;-80
2021/05/19 07:24:16;;;;;;;5.67;4.40;;;;;;;18.80;53.78;94624.31;5137183;27;20438;-81
2021/05/19 07:26:44;;;;;;;5.50;3.63;;;;;;;18.78;54.15;94623.63;5136835;27;20443;-81
2021/05/19 07:29:12;;;;;;;5.90;3.63;;;;;;;18.65;53.92;94606.72;5136942;27;20497;-79
2021/05/19 07:31:40;;;;;;;8.27;4.30;;;;;;;18.72;54.77;94608.44;5137399;27;20441;-80
2021/05/19 07:34:07;;;;;;;5.93;3.70;;;;;;;19.01;54.04;94602.22;5137357;27;20846;-81
2021/05/19 07:36:34;;;;;;;6.50;3.83;;;;;;;19.23;52.84;94596.91;5137398;27;20927;-80
2021/05/19 07:39:02;;;;;;;8.83;3.67;;;;;;;19.50;53.10;94588.97;5137312;27;20440;-81
2021/05/19 07:41:29;;;;;;;3.73;3.00;;;;;;;19.63;50.29;94582.97;5136943;27;20816;-82
2021/05/19 07:43:55;;;;;;;4.40;2.73;;;;;;;19.71;51.49;94572.19;5137071;27;20437;-81
2021/05/19 07:46:22;;;;;;;4.30;2.50;;;;;;;19.90;51.45;94576.00;5136657;27;20449;-81
2021/05/19 07:48:48;;;;;;;3.53;2.77;;;;;;;19.78;49.61;94578.38;5136842;27;20505;-82
2021/05/19 07:51:15;;;;;;;5.10;3.23;;;;;;;19.58;49.13;94569.41;5136567;27;20477;-81
2021/05/19 07:53:42;;;;;;;9.63;3.30;;;;;;;19.61;51.13;94566.34;5136842;27;20479;-82
2021/05/19 07:56:14;;;;;;;8.47;3.23;;;;;;;19.60;52.87;94556.72;5100107;27;20520;-82
2021/05/19 07:58:44;;;;;;;5.13;3.17;;;;;;;19.61;52.26;94555.72;5136517;27;20987;-81
2021/05/19 08:01:25;;;;;;;6.50;3.30;;;;;;;19.70;51.78;94564.41;5136830;27;20476;-80
2021/05/19 08:03:52;;;;;;;3.90;2.90;;;;;;;19.89;51.64;94557.53;5137111;27;20469;-80
2021/05/19 08:06:18;;;;;;;6.00;3.50;;;;;;;19.95;52.94;94546.09;5136618;27;20445;-80
2021/05/19 08:08:45;;;;;;;4.57;2.97;;;;;;;20.03;50.75;94549.47;5136561;27;20514;-82
2021/05/19 08:11:11;;;;;;;3.77;3.00;;;;;;;19.94;50.61;94539.13;5137280;27;20434;-81
2021/05/19 08:13:40;;;;;;;3.63;2.53;;;;;;;19.89;51.55;94536.25;5136279;27;20972;-81
2021/05/19 08:16:08;;;;;;;2.47;1.90;;;;;;;19.62;50.26;94543.22;5136981;27;20953;-82
2021/05/19 08:18:34;;;;;;;4.63;1.97;;;;;;;19.57;50.90;94535.81;5100493;27;20452;-82
2021/05/19 08:21:01;;;;;;;6.63;2.40;;;;;;;19.85;50.90;94533.16;5137180;27;20451;-82
2021/05/19 08:23:27;;;;;;;2.77;2.10;;;;;;;19.90;51.16;94540.56;5136952;27;20453;-82
2021/05/19 08:25:55;;;;;;;5.33;2.13;;;;;;;19.94;49.95;94555.94;5137086;27;20449;-83
2021/05/19 08:28:21;;;;;;;4.13;1.93;;;;;;;20.13;49.11;94549.09;5136596;27;20438;-80
2021/05/19 08:30:48;;;;;;;2.30;2.10;;;;;;;20.19;48.27;94550.13;5136400;27;20872;-82
2021/05/19 08:33:15;;;;;;;1.77;1.67;;;;;;;20.17;48.96;94544.19;5135393;27;20476;-81
2021/05/19 08:35:41;;;;;;;4.17;1.53;;;;;;;20.22;48.67;94542.56;5136107;27;20435;-80
2021/05/19 08:38:08;;;;;;;2.50;1.80;;;;;;;20.31;48.72;94536.06;5135680;27;20790;-81
2021/05/19 08:40:34;;;;;;;2.47;2.07;;;;;;;20.60;48.28;94537.66;5135595;27;20446;-81
2021/05/19 08:43:01;;;;;;;5.30;2.37;;;;;;;20.96;48.58;94531.19;5135605;27;20513;-81
2021/05/19 08:45:27;;;;;;;1.60;1.50;;;;;;;21.17;46.15;94536.34;5135409;27;20922;-81
2021/05/19 08:48:01;;;;;;;3.73;2.10;;;;;;;20.89;46.74;94535.69;5135872;27;20475;-81
2021/05/19 08:50:29;;;;;;;2.47;2.00;;;;;;;20.77;47.48;94540.75;5135743;27;20431;-81
2021/05/19 08:52:57;;;;;;;2.73;2.10;;;;;;;20.45;47.96;94533.47;5135770;27;20871;-81
2021/05/19 08:55:23;;;;;;;2.33;1.60;;;;;;;20.28;49.24;94530.31;5135219;27;20437;-81
2021/05/19 08:57:50;;;;;;;3.20;1.70;;;;;;;20.19;48.92;94520.84;5135770;27;20546;-80
2021/05/19 09:00:17;;;;;;;1.80;1.70;;;;;;;20.22;49.71;94531.09;5135760;27;20925;-81
2021/05/19 09:03:04;;;;;;;1.63;1.53;;;;;;;19.95;50.48;94530.13;5135446;27;20916;-81
2021/05/19 09:05:32;;;;;;;3.53;1.70;;;;;;;19.62;49.60;94536.06;5135516;27;20931;-82
2021/05/19 09:08:03;;;;;;;1.93;1.70;;;;;;;19.64;51.09;94523.38;5135799;27;20447;-83
2021/05/19 09:10:30;;;;;;;5.77;1.70;;;;;;;19.56;50.05;94520.88;5135879;27;20461;-80
2021/05/19 09:12:56;;;;;;;1.67;1.57;;;;;;;19.72;50.97;94520.59;5134814;27;20535;-81
2021/05/19 09:15:23;;;;;;;2.60;2.20;;;;;;;19.78;51.10;94514.47;5134432;27;20539;-81
2021/05/19 09:17:55;;;;;;;2.00;1.57;;;;;;;19.91;50.85;94513.72;5134596;27;20563;-81
2021/05/19 09:20:21;;;;;;;3.77;1.93;;;;;;;19.93;50.85;94516.19;5100102;27;20540;-82
2021/05/19 09:23:00;;;;;;;4.30;1.43;;;;;;;19.92;50.95;94522.53;5135873;27;20456;-83
2021/05/19 09:25:30;;;;;;;3.70;1.80;;;;;;;19.84;50.08;94506.72;5116125;27;20437;-82
2021/05/19 09:28:00;;;;;;;4.30;1.50;;;;;;;19.73;50.04;94510.75;5135016;27;20453;-82
2021/05/19 09:30:39;;;;;;;1.80;1.50;;;;;;;19.84;50.19;94515.53;5135092;27;20441;-81
2021/05/19 09:33:17;;;;;;;1.63;1.53;;;;;;;19.99;50.63;94499.44;5135852;27;20437;-82
2021/05/19 09:35:44;;;;;;;3.00;1.40;;;;;;;20.01;49.91;94514.22;5135252;27;20530;-82
2021/05/19 09:38:28;;;;;;;1.87;1.40;;;;;;;20.11;50.00;94497.84;5135428;27;20431;-81
2021/05/19 09:41:23;;;;;;;4.40;2.50;;;;;;;20.30;48.02;94496.31;5135270;27;20851;-81
2021/05/19 09:43:53;;;;;;;2.80;1.60;;;;;;;20.08;47.50;94491.06;5135141;27;20456;-81
2021/05/19 09:46:23;;;;;;;7.40;2.10;;;;;;;20.27;49.30;94497.53;5136697;27;20446;-85
2021/05/19 09:49:13;;;;;;;3.17;1.60;;;;;;;20.25;47.60;94498.75;5136046;27;20446;-81
2021/05/19 09:51:39;;;;;;;2.20;1.63;;;;;;;20.45;47.71;94480.16;5134117;27;20478;-82
2021/05/19 09:54:27;;;;;;;1.80;1.57;;;;;;;20.71;47.31;94480.25;5135238;27;20473;-81
2021/05/19 09:56:54;;;;;;;2.10;1.90;;;;;;;20.90;47.26;94487.47;5135654;27;20487;-81
2021/05/19 09:59:21;;;;;;;7.73;2.17;;;;;;;21.04;48.66;94475.78;5134665;27;20472;-80
2021/05/19 10:01:49;;;;;;;3.73;1.90;;;;;;;21.10;48.01;94475.97;5134663;28;20946;-79
2021/05/19 10:04:18;;;;;;;2.50;1.40;;;;;;;20.97;46.99;94477.63;5134212;27;20872;-79
2021/05/19 10:06:46;;;;;;;3.50;2.20;;;;;;;21.04;48.17;94464.28;5134965;28;20837;-81
2021/05/19 10:09:13;;;;;;;3.30;1.53;;;;;;;20.98;48.55;94467.78;5135451;28;20438;-81
2021/05/19 10:11:41;;;;;;;1.83;1.47;;;;;;;20.98;47.65;94468.59;5135080;28;20465;-81
2021/05/19 10:14:10;;;;;;;3.87;1.97;;;;;;;21.20;47.21;94468.41;5135550;27;20470;-82
2021/05/19 10:16:37;;;;;;;2.43;1.77;;;;;;;21.39;47.16;94464.91;5134798;27;20439;-81
2021/05/19 10:19:06;;;;;;;5.47;1.90;;;;;;;21.43;47.09;94455.50;5134635;27;20444;-83
2021/05/19 10:21:35;;;;;;;2.10;1.77;;;;;;;21.56;46.75;94444.78;5135494;27;20184;-82
2021/05/19 10:24:05;;;;;;;5.87;1.80;;;;;;;21.56;46.13;94444.78;5135209;28;20442;-82
2021/05/19 10:26:33;;;;;;;2.20;1.70;;;;;;;21.57;46.27;94434.91;5135092;28;20434;-82
2021/05/19 10:29:00;;;;;;;7.83;2.00;;;;;;;21.44;46.46;94442.97;5135921;28;20564;-81
2021/05/19 10:31:33;;;;;;;5.93;1.73;;;;;;;21.30;48.08;94429.63;5134806;27;20588;-82
2021/05/19 10:34:00;;;;;;;2.40;1.70;;;;;;;21.10;46.91;94430.63;5134496;27;20479;-83
2021/05/19 10:36:37;;;;;;;6.47;2.60;;;;;;;21.05;47.08;94423.22;5134532;28;20446;-82
2021/05/19 10:39:28;;;;;;;2.17;1.90;;;;;;;21.04;48.19;94424.25;5134533;28;20521;-81
2021/05/19 10:41:57;;;;;;;2.47;1.80;;;;;;;21.06;47.54;94416.03;5135379;28;20430;-81
2021/05/19 10:44:28;;;;;;;2.47;1.70;;;;;;;21.11;47.82;94413.59;5134072;28;20446;-81
2021/05/19 10:47:06;;;;;;;1.50;1.40;;;;;;;21.10;48.58;94410.09;5134549;28;20515;-82
2021/05/19 10:58:47;;;;;;;4.10;2.13;;;;;;;21.44;48.38;94397.56;5138013;27;20501;-82
2021/05/19 11:01:14;;;;;;;4.60;1.63;;;;;;;21.40;48.40;94386.50;5138142;27;20451;-82
2021/05/19 11:03:42;;;;;;;3.47;1.87;;;;;;;21.22;49.28;94381.78;5101541;27;20501;-81
2021/05/19 11:06:13;;;;;;;2.70;2.00;;;;;;;21.29;48.02;94381.78;5138029;27;20427;-81
2021/05/19 11:08:40;;;;;;;10.20;2.13;;;;;;;21.45;48.29;94373.34;5138066;27;20450;-81
2021/05/19 11:11:22;;;;;;;4.47;1.97;;;;;;;21.73;48.53;94370.38;5138063;27;20443;-81
2021/05/19 11:14:10;;;;;;;7.33;1.80;;;;;;;21.86;46.71;94372.16;5116990;28;20488;-81
2021/05/19 11:17:11;;;;;;;2.63;2.53;;;;;;;21.76;45.17;94363.78;5116853;28;20440;-81
2021/05/19 11:19:38;;;;;;;2.70;1.50;;;;;;;21.85;45.19;94355.31;5066753;28;20520;-80
2021/05/19 11:22:07;;;;;;;2.60;2.03;;;;;;;21.96;44.41;94345.81;5074041;28;20844;-81
2021/05/19 11:24:51;;;;;;;5.63;2.03;;;;;;;22.20;45.01;94345.09;5073827;28;20444;-81
2021/05/19 11:27:19;;;;;;;2.60;2.10;;;;;;;22.33;46.05;94333.50;5074063;28;20481;-82
2021/05/19 11:29:46;;;;;;;3.00;1.70;;;;;;;22.42;46.91;94339.41;5074578;28;20833;-82
2021/05/19 11:32:18;;;;;;;2.00;1.80;;;;;;;22.47;46.42;94334.22;5073722;28;20880;-82
2021/05/19 11:34:44;;;;;;;2.40;1.83;;;;;;;22.66;46.18;94327.94;5073818;28;21031;-82
2021/05/19 11:37:11;;;;;;;3.60;1.80;;;;;;;22.73;45.34;94328.69;5073991;28;20451;-81
2021/05/19 11:39:39;;;;;;;4.90;1.93;;;;;;;22.83;45.94;94321.00;5073848;28;20942;-82
2021/05/19 11:42:18;;;;;;;4.47;1.83;;;;;;;22.79;45.14;94319.78;5073632;28;20480;-82
2021/05/19 11:44:49;;;;;;;6.93;2.10;;;;;;;22.97;44.68;94307.53;5073811;28;20451;-82